sensor_id;sensor_type;location;lat;lon;timestamp;P1;durP1;ratioP1;P2;durP2;ratioP2
36931;SDS011;22847;42.654;23.370;2022-08-25T00:01:11;36.63;;;9.70;;
36931;SDS011;22847;42.654;23.370;2022-08-25T00:03:42;36.42;;;9.82;;
36931;SDS011;22847;42.654;23.370;2022-08-25T00:06:09;31.23;;;9.48;;
36931;SDS011;22847;42.654;23.370;2022-08-25T00:08:35;23.95;;;9.85;;
36931;SDS011;22847;42.654;23.370;2022-08-25T00:11:05;29.17;;;9.60;;
36931;SDS011;22847;42.654;23.370;2022-08-25T00:13:35;24.05;;;10.18;;
36931;SDS011;22847;42.654;23.370;2022-08-25T00:16:01;36.00;;;10.18;;
36931;SDS011;22847;42.654;23.370;2022-08-25T00:18:27;30.55;;;9.48;;
36931;SDS011;22847;42.654;23.370;2022-08-25T00:20:52;31.73;;;10.43;;
36931;SDS011;22847;42.654;23.370;2022-08-25T00:23:18;31.10;;;9.63;;
36931;SDS011;22847;42.654;23.370;2022-08-25T00:25:44;31.40;;;9.52;;
36931;SDS011;22847;42.654;23.370;2022-08-25T00:28:09;26.35;;;9.63;;
36931;SDS011;22847;42.654;23.370;2022-08-25T00:30:35;29.60;;;10.15;;
36931;SDS011;22847;42.654;23.370;2022-08-25T00:33:01;29.65;;;9.50;;
36931;SDS011;22847;42.654;23.370;2022-08-25T00:35:28;28.90;;;9.32;;
36931;SDS011;22847;42.654;23.370;2022-08-25T00:37:54;23.67;;;9.20;;
36931;SDS011;22847;42.654;23.370;2022-08-25T00:40:20;31.15;;;9.18;;
36931;SDS011;22847;42.654;23.370;2022-08-25T00:42:47;32.67;;;9.27;;
36931;SDS011;22847;42.654;23.370;2022-08-25T00:45:13;36.15;;;9.32;;
36931;SDS011;22847;42.654;23.370;2022-08-25T00:47:38;22.20;;;9.75;;
36931;SDS011;22847;42.654;23.370;2022-08-25T00:50:07;31.17;;;9.63;;
36931;SDS011;22847;42.654;23.370;2022-08-25T00:52:39;41.58;;;10.85;;
36931;SDS011;22847;42.654;23.370;2022-08-25T00:55:21;31.65;;;9.55;;
36931;SDS011;22847;42.654;23.370;2022-08-25T00:57:55;23.88;;;8.88;;
36931;SDS011;22847;42.654;23.370;2022-08-25T01:00:28;27.90;;;8.93;;
36931;SDS011;22847;42.654;23.370;2022-08-25T01:02:56;25.77;;;9.43;;
36931;SDS011;22847;42.654;23.370;2022-08-25T01:05:22;26.02;;;8.55;;
36931;SDS011;22847;42.654;23.370;2022-08-25T01:07:50;33.45;;;9.13;;
36931;SDS011;22847;42.654;23.370;2022-08-25T01:10:17;33.55;;;10.93;;
36931;SDS011;22847;42.654;23.370;2022-08-25T01:12:45;33.03;;;9.23;;
36931;SDS011;22847;42.654;23.370;2022-08-25T01:15:12;26.48;;;8.98;;
36931;SDS011;22847;42.654;23.370;2022-08-25T01:17:44;22.27;;;8.65;;
36931;SDS011;22847;42.654;23.370;2022-08-25T01:20:16;32.85;;;8.88;;
36931;SDS011;22847;42.654;23.370;2022-08-25T01:22:44;32.67;;;9.02;;
36931;SDS011;22847;42.654;23.370;2022-08-25T01:28:03;26.50;;;8.35;;
36931;SDS011;22847;42.654;23.370;2022-08-25T01:30:29;27.00;;;8.50;;
36931;SDS011;22847;42.654;23.370;2022-08-25T01:32:55;24.08;;;8.90;;
36931;SDS011;22847;42.654;23.370;2022-08-25T01:35:20;31.75;;;8.55;;
36931;SDS011;22847;42.654;23.370;2022-08-25T01:37:46;32.00;;;8.57;;
36931;SDS011;22847;42.654;23.370;2022-08-25T01:40:12;32.50;;;8.93;;
36931;SDS011;22847;42.654;23.370;2022-08-25T01:45:25;31.55;;;9.57;;
36931;SDS011;22847;42.654;23.370;2022-08-25T01:47:50;35.35;;;9.73;;
36931;SDS011;22847;42.654;23.370;2022-08-25T01:50:16;24.30;;;9.35;;
36931;SDS011;22847;42.654;23.370;2022-08-25T01:55:43;28.92;;;9.95;;
36931;SDS011;22847;42.654;23.370;2022-08-25T01:58:29;29.80;;;9.27;;
36931;SDS011;22847;42.654;23.370;2022-08-25T02:00:58;25.73;;;9.80;;
36931;SDS011;22847;42.654;23.370;2022-08-25T02:03:25;23.38;;;10.55;;
36931;SDS011;22847;42.654;23.370;2022-08-25T02:05:52;30.85;;;9.07;;
36931;SDS011;22847;42.654;23.370;2022-08-25T02:08:19;28.65;;;10.68;;
36931;SDS011;22847;42.654;23.370;2022-08-25T02:10:47;19.88;;;8.93;;
36931;SDS011;22847;42.654;23.370;2022-08-25T02:13:13;32.75;;;10.10;;
36931;SDS011;22847;42.654;23.370;2022-08-25T02:16:13;23.88;;;9.10;;
36931;SDS011;22847;42.654;23.370;2022-08-25T02:18:32;29.10;;;9.80;;
36931;SDS011;22847;42.654;23.370;2022-08-25T02:20:58;34.70;;;9.32;;
36931;SDS011;22847;42.654;23.370;2022-08-25T02:23:23;30.17;;;9.50;;
36931;SDS011;22847;42.654;23.370;2022-08-25T02:25:49;36.92;;;12.85;;
36931;SDS011;22847;42.654;23.370;2022-08-25T02:28:14;37.75;;;15.10;;
36931;SDS011;22847;42.654;23.370;2022-08-25T02:30:40;28.98;;;11.93;;
36931;SDS011;22847;42.654;23.370;2022-08-25T02:33:07;27.00;;;9.90;;
36931;SDS011;22847;42.654;23.370;2022-08-25T02:35:33;22.90;;;9.70;;
36931;SDS011;22847;42.654;23.370;2022-08-25T02:37:59;27.45;;;8.40;;
36931;SDS011;22847;42.654;23.370;2022-08-25T02:40:25;24.92;;;9.32;;
36931;SDS011;22847;42.654;23.370;2022-08-25T02:42:51;31.75;;;9.88;;
36931;SDS011;22847;42.654;23.370;2022-08-25T02:45:19;25.02;;;9.48;;
36931;SDS011;22847;42.654;23.370;2022-08-25T02:47:45;31.85;;;10.10;;
36931;SDS011;22847;42.654;23.370;2022-08-25T02:50:11;28.25;;;9.63;;
36931;SDS011;22847;42.654;23.370;2022-08-25T02:52:37;31.55;;;11.40;;
36931;SDS011;22847;42.654;23.370;2022-08-25T02:55:04;27.50;;;10.23;;
36931;SDS011;22847;42.654;23.370;2022-08-25T02:57:32;29.70;;;9.15;;
36931;SDS011;22847;42.654;23.370;2022-08-25T02:59:58;20.05;;;9.65;;
36931;SDS011;22847;42.654;23.370;2022-08-25T03:02:24;31.90;;;10.07;;
36931;SDS011;22847;42.654;23.370;2022-08-25T03:04:51;33.38;;;9.38;;
36931;SDS011;22847;42.654;23.370;2022-08-25T03:07:18;30.83;;;11.07;;
36931;SDS011;22847;42.654;23.370;2022-08-25T03:09:44;31.00;;;11.93;;
36931;SDS011;22847;42.654;23.370;2022-08-25T03:12:10;26.02;;;10.32;;
36931;SDS011;22847;42.654;23.370;2022-08-25T03:14:36;32.95;;;10.00;;
36931;SDS011;22847;42.654;23.370;2022-08-25T03:17:03;32.13;;;10.13;;
36931;SDS011;22847;42.654;23.370;2022-08-25T03:19:29;39.78;;;13.27;;
36931;SDS011;22847;42.654;23.370;2022-08-25T03:21:55;30.02;;;12.00;;
36931;SDS011;22847;42.654;23.370;2022-08-25T03:24:21;32.20;;;10.05;;
36931;SDS011;22847;42.654;23.370;2022-08-25T03:26:48;33.92;;;10.02;;
36931;SDS011;22847;42.654;23.370;2022-08-25T03:29:21;38.33;;;9.40;;
36931;SDS011;22847;42.654;23.370;2022-08-25T03:31:55;26.02;;;8.55;;
36931;SDS011;22847;42.654;23.370;2022-08-25T03:34:25;24.30;;;7.88;;
36931;SDS011;22847;42.654;23.370;2022-08-25T03:36:53;26.95;;;8.75;;
36931;SDS011;22847;42.654;23.370;2022-08-25T03:39:20;31.35;;;9.52;;
36931;SDS011;22847;42.654;23.370;2022-08-25T03:41:47;37.72;;;9.73;;
36931;SDS011;22847;42.654;23.370;2022-08-25T03:44:14;28.67;;;8.65;;
36931;SDS011;22847;42.654;23.370;2022-08-25T03:46:42;29.55;;;8.25;;
36931;SDS011;22847;42.654;23.370;2022-08-25T03:49:11;22.60;;;8.02;;
36931;SDS011;22847;42.654;23.370;2022-08-25T03:51:40;29.50;;;11.38;;
36931;SDS011;22847;42.654;23.370;2022-08-25T03:54:14;34.33;;;9.23;;
36931;SDS011;22847;42.654;23.370;2022-08-25T03:56:41;28.92;;;8.85;;
36931;SDS011;22847;42.654;23.370;2022-08-25T03:59:07;26.80;;;8.73;;
36931;SDS011;22847;42.654;23.370;2022-08-25T04:01:34;39.30;;;20.58;;
36931;SDS011;22847;42.654;23.370;2022-08-25T04:04:04;30.10;;;10.48;;
36931;SDS011;22847;42.654;23.370;2022-08-25T04:06:30;22.13;;;9.35;;
36931;SDS011;22847;42.654;23.370;2022-08-25T04:08:56;34.40;;;9.55;;
36931;SDS011;22847;42.654;23.370;2022-08-25T04:11:23;32.50;;;8.77;;
36931;SDS011;22847;42.654;23.370;2022-08-25T04:13:49;33.50;;;8.98;;
36931;SDS011;22847;42.654;23.370;2022-08-25T04:16:17;35.00;;;8.90;;
36931;SDS011;22847;42.654;23.370;2022-08-25T04:18:44;33.17;;;10.02;;
36931;SDS011;22847;42.654;23.370;2022-08-25T04:21:12;26.58;;;9.13;;
36931;SDS011;22847;42.654;23.370;2022-08-25T04:23:38;30.80;;;9.27;;
36931;SDS011;22847;42.654;23.370;2022-08-25T04:26:12;30.63;;;9.23;;
36931;SDS011;22847;42.654;23.370;2022-08-25T04:28:40;33.22;;;8.90;;
36931;SDS011;22847;42.654;23.370;2022-08-25T04:31:07;24.88;;;10.13;;
36931;SDS011;22847;42.654;23.370;2022-08-25T04:33:34;26.98;;;9.40;;
36931;SDS011;22847;42.654;23.370;2022-08-25T04:36:00;26.50;;;9.80;;
36931;SDS011;22847;42.654;23.370;2022-08-25T04:38:26;24.73;;;9.75;;
36931;SDS011;22847;42.654;23.370;2022-08-25T04:40:55;27.15;;;9.43;;
36931;SDS011;22847;42.654;23.370;2022-08-25T04:43:25;22.75;;;8.65;;
36931;SDS011;22847;42.654;23.370;2022-08-25T04:45:51;26.38;;;9.65;;
36931;SDS011;22847;42.654;23.370;2022-08-25T04:48:17;27.77;;;8.68;;
36931;SDS011;22847;42.654;23.370;2022-08-25T04:50:43;29.20;;;9.02;;
36931;SDS011;22847;42.654;23.370;2022-08-25T04:53:09;28.67;;;8.85;;
36931;SDS011;22847;42.654;23.370;2022-08-25T04:55:45;27.10;;;8.52;;
36931;SDS011;22847;42.654;23.370;2022-08-25T04:58:15;30.55;;;9.43;;
36931;SDS011;22847;42.654;23.370;2022-08-25T05:00:41;34.45;;;9.02;;
36931;SDS011;22847;42.654;23.370;2022-08-25T05:03:07;29.30;;;8.57;;
36931;SDS011;22847;42.654;23.370;2022-08-25T05:05:36;30.98;;;8.60;;
36931;SDS011;22847;42.654;23.370;2022-08-25T05:08:02;40.38;;;10.00;;
36931;SDS011;22847;42.654;23.370;2022-08-25T05:10:29;24.45;;;8.43;;
36931;SDS011;22847;42.654;23.370;2022-08-25T05:12:55;24.92;;;9.45;;
36931;SDS011;22847;42.654;23.370;2022-08-25T05:15:20;27.10;;;9.18;;
36931;SDS011;22847;42.654;23.370;2022-08-25T05:18:04;28.27;;;9.30;;
36931;SDS011;22847;42.654;23.370;2022-08-25T05:20:30;32.97;;;9.05;;
36931;SDS011;22847;42.654;23.370;2022-08-25T05:22:55;35.40;;;9.68;;
36931;SDS011;22847;42.654;23.370;2022-08-25T05:25:21;27.92;;;12.13;;
36931;SDS011;22847;42.654;23.370;2022-08-25T05:27:47;31.60;;;10.10;;
36931;SDS011;22847;42.654;23.370;2022-08-25T05:30:13;25.50;;;9.40;;
36931;SDS011;22847;42.654;23.370;2022-08-25T05:32:38;31.20;;;9.73;;
36931;SDS011;22847;42.654;23.370;2022-08-25T05:35:05;22.10;;;9.15;;
36931;SDS011;22847;42.654;23.370;2022-08-25T05:37:31;25.52;;;9.48;;
36931;SDS011;22847;42.654;23.370;2022-08-25T05:39:57;24.58;;;9.40;;
36931;SDS011;22847;42.654;23.370;2022-08-25T05:42:22;38.03;;;9.57;;
36931;SDS011;22847;42.654;23.370;2022-08-25T05:44:48;29.58;;;9.40;;
36931;SDS011;22847;42.654;23.370;2022-08-25T05:47:15;26.70;;;9.30;;
36931;SDS011;22847;42.654;23.370;2022-08-25T05:49:40;26.67;;;9.25;;
36931;SDS011;22847;42.654;23.370;2022-08-25T05:52:06;30.75;;;9.88;;
36931;SDS011;22847;42.654;23.370;2022-08-25T05:54:32;30.40;;;9.10;;
36931;SDS011;22847;42.654;23.370;2022-08-25T05:56:58;25.48;;;8.90;;
36931;SDS011;22847;42.654;23.370;2022-08-25T05:59:24;24.48;;;9.43;;
36931;SDS011;22847;42.654;23.370;2022-08-25T06:01:49;26.60;;;10.48;;
36931;SDS011;22847;42.654;23.370;2022-08-25T06:04:33;34.67;;;10.60;;
36931;SDS011;22847;42.654;23.370;2022-08-25T06:06:59;25.85;;;10.20;;
36931;SDS011;22847;42.654;23.370;2022-08-25T06:09:24;22.77;;;9.90;;
36931;SDS011;22847;42.654;23.370;2022-08-25T06:11:51;19.27;;;8.55;;
36931;SDS011;22847;42.654;23.370;2022-08-25T06:14:16;23.90;;;9.18;;
36931;SDS011;22847;42.654;23.370;2022-08-25T06:16:43;31.73;;;9.70;;
36931;SDS011;22847;42.654;23.370;2022-08-25T06:19:09;33.42;;;10.07;;
36931;SDS011;22847;42.654;23.370;2022-08-25T06:21:35;27.70;;;9.30;;
36931;SDS011;22847;42.654;23.370;2022-08-25T06:24:03;26.70;;;9.13;;
36931;SDS011;22847;42.654;23.370;2022-08-25T06:26:29;21.25;;;8.82;;
36931;SDS011;22847;42.654;23.370;2022-08-25T06:28:55;26.48;;;9.10;;
36931;SDS011;22847;42.654;23.370;2022-08-25T06:31:21;25.83;;;9.15;;
36931;SDS011;22847;42.654;23.370;2022-08-25T06:33:46;18.15;;;8.27;;
36931;SDS011;22847;42.654;23.370;2022-08-25T06:36:13;34.95;;;9.48;;
36931;SDS011;22847;42.654;23.370;2022-08-25T06:38:39;15.95;;;8.93;;
36931;SDS011;22847;42.654;23.370;2022-08-25T06:41:05;27.90;;;9.25;;
36931;SDS011;22847;42.654;23.370;2022-08-25T06:43:32;24.90;;;9.18;;
36931;SDS011;22847;42.654;23.370;2022-08-25T06:46:06;27.52;;;8.23;;
36931;SDS011;22847;42.654;23.370;2022-08-25T06:48:32;21.08;;;8.10;;
36931;SDS011;22847;42.654;23.370;2022-08-25T06:50:58;23.98;;;9.07;;
36931;SDS011;22847;42.654;23.370;2022-08-25T06:53:23;27.65;;;8.73;;
36931;SDS011;22847;42.654;23.370;2022-08-25T06:55:56;18.08;;;7.18;;
36931;SDS011;22847;42.654;23.370;2022-08-25T06:58:22;21.13;;;8.45;;
36931;SDS011;22847;42.654;23.370;2022-08-25T07:00:47;28.13;;;8.55;;
36931;SDS011;22847;42.654;23.370;2022-08-25T07:03:13;19.67;;;7.63;;
36931;SDS011;22847;42.654;23.370;2022-08-25T07:05:38;18.58;;;6.82;;
36931;SDS011;22847;42.654;23.370;2022-08-25T07:08:05;20.67;;;8.18;;
36931;SDS011;22847;42.654;23.370;2022-08-25T07:10:30;25.63;;;9.20;;
36931;SDS011;22847;42.654;23.370;2022-08-25T07:12:56;23.95;;;7.93;;
36931;SDS011;22847;42.654;23.370;2022-08-25T07:15:21;19.27;;;7.85;;
36931;SDS011;22847;42.654;23.370;2022-08-25T07:17:47;24.88;;;7.78;;
36931;SDS011;22847;42.654;23.370;2022-08-25T07:20:15;22.23;;;9.85;;
36931;SDS011;22847;42.654;23.370;2022-08-25T07:22:41;24.73;;;8.48;;
36931;SDS011;22847;42.654;23.370;2022-08-25T07:25:07;22.48;;;9.10;;
36931;SDS011;22847;42.654;23.370;2022-08-25T07:27:35;22.80;;;9.20;;
36931;SDS011;22847;42.654;23.370;2022-08-25T07:30:00;28.52;;;8.27;;
36931;SDS011;22847;42.654;23.370;2022-08-25T07:32:26;21.08;;;7.57;;
36931;SDS011;22847;42.654;23.370;2022-08-25T07:34:51;30.73;;;11.27;;
36931;SDS011;22847;42.654;23.370;2022-08-25T07:37:36;35.50;;;9.80;;
36931;SDS011;22847;42.654;23.370;2022-08-25T07:40:03;24.58;;;7.50;;
36931;SDS011;22847;42.654;23.370;2022-08-25T07:42:28;29.30;;;8.70;;
36931;SDS011;22847;42.654;23.370;2022-08-25T07:44:54;33.08;;;9.18;;
36931;SDS011;22847;42.654;23.370;2022-08-25T07:47:19;23.80;;;8.23;;
36931;SDS011;22847;42.654;23.370;2022-08-25T07:49:45;41.83;;;9.95;;
36931;SDS011;22847;42.654;23.370;2022-08-25T07:52:10;32.85;;;9.02;;
36931;SDS011;22847;42.654;23.370;2022-08-25T07:54:36;25.27;;;7.50;;
36931;SDS011;22847;42.654;23.370;2022-08-25T07:57:02;30.85;;;8.00;;
36931;SDS011;22847;42.654;23.370;2022-08-25T07:59:28;29.65;;;7.28;;
36931;SDS011;22847;42.654;23.370;2022-08-25T08:01:54;30.55;;;7.35;;
36931;SDS011;22847;42.654;23.370;2022-08-25T08:04:20;25.63;;;8.15;;
36931;SDS011;22847;42.654;23.370;2022-08-25T08:06:46;26.92;;;7.63;;
36931;SDS011;22847;42.654;23.370;2022-08-25T08:09:11;28.35;;;8.02;;
36931;SDS011;22847;42.654;23.370;2022-08-25T08:11:37;33.97;;;8.02;;
36931;SDS011;22847;42.654;23.370;2022-08-25T08:14:05;26.80;;;7.50;;
36931;SDS011;22847;42.654;23.370;2022-08-25T08:16:31;28.23;;;8.10;;
36931;SDS011;22847;42.654;23.370;2022-08-25T08:18:57;37.33;;;8.23;;
36931;SDS011;22847;42.654;23.370;2022-08-25T08:21:28;25.02;;;7.60;;
36931;SDS011;22847;42.654;23.370;2022-08-25T08:23:56;26.83;;;7.50;;
36931;SDS011;22847;42.654;23.370;2022-08-25T08:26:23;27.05;;;7.47;;
36931;SDS011;22847;42.654;23.370;2022-08-25T08:28:49;29.30;;;7.65;;
36931;SDS011;22847;42.654;23.370;2022-08-25T08:31:16;35.88;;;7.88;;
36931;SDS011;22847;42.654;23.370;2022-08-25T08:33:46;35.20;;;7.80;;
36931;SDS011;22847;42.654;23.370;2022-08-25T08:36:12;26.05;;;6.90;;
36931;SDS011;22847;42.654;23.370;2022-08-25T08:38:39;36.08;;;7.70;;
36931;SDS011;22847;42.654;23.370;2022-08-25T08:44:26;43.42;;;7.70;;
36931;SDS011;22847;42.654;23.370;2022-08-25T08:58:10;42.85;;;7.53;;
36931;SDS011;22847;42.654;23.370;2022-08-25T09:00:45;39.40;;;6.68;;
36931;SDS011;22847;42.654;23.370;2022-08-25T09:06:11;30.33;;;6.30;;
36931;SDS011;22847;42.654;23.370;2022-08-25T09:08:43;40.65;;;6.43;;
36931;SDS011;22847;42.654;23.370;2022-08-25T09:11:17;36.60;;;6.75;;
36931;SDS011;22847;42.654;23.370;2022-08-25T09:14:29;42.63;;;7.93;;
36931;SDS011;22847;42.654;23.370;2022-08-25T09:30:55;29.35;;;6.32;;
36931;SDS011;22847;42.654;23.370;2022-08-25T09:33:24;44.10;;;6.97;;
36931;SDS011;22847;42.654;23.370;2022-08-25T09:35:52;40.13;;;6.15;;
36931;SDS011;22847;42.654;23.370;2022-08-25T09:38:18;30.65;;;6.22;;
36931;SDS011;22847;42.654;23.370;2022-08-25T09:40:45;38.10;;;6.43;;
36931;SDS011;22847;42.654;23.370;2022-08-25T09:43:28;36.47;;;5.95;;
36931;SDS011;22847;42.654;23.370;2022-08-25T09:46:39;25.83;;;6.13;;
36931;SDS011;22847;42.654;23.370;2022-08-25T09:48:51;27.35;;;5.20;;
36931;SDS011;22847;42.654;23.370;2022-08-25T09:51:30;32.22;;;5.90;;
36931;SDS011;22847;42.654;23.370;2022-08-25T09:56:56;28.60;;;5.60;;
36931;SDS011;22847;42.654;23.370;2022-08-25T09:59:30;36.53;;;6.75;;
36931;SDS011;22847;42.654;23.370;2022-08-25T10:02:00;36.13;;;5.63;;
36931;SDS011;22847;42.654;23.370;2022-08-25T10:04:44;30.00;;;5.90;;
36931;SDS011;22847;42.654;23.370;2022-08-25T10:07:20;43.78;;;6.90;;
36931;SDS011;22847;42.654;23.370;2022-08-25T10:09:51;36.42;;;7.25;;
36931;SDS011;22847;42.654;23.370;2022-08-25T10:12:39;40.20;;;6.13;;
36931;SDS011;22847;42.654;23.370;2022-08-25T10:17:43;36.60;;;7.05;;
36931;SDS011;22847;42.654;23.370;2022-08-25T10:22:33;38.05;;;5.57;;
36931;SDS011;22847;42.654;23.370;2022-08-25T10:25:00;44.58;;;6.57;;
36931;SDS011;22847;42.654;23.370;2022-08-25T10:38:53;33.30;;;6.13;;
36931;SDS011;22847;42.654;23.370;2022-08-25T10:46:40;28.88;;;5.10;;
36931;SDS011;22847;42.654;23.370;2022-08-25T10:49:18;36.38;;;6.15;;
36931;SDS011;22847;42.654;23.370;2022-08-25T10:52:05;30.02;;;4.65;;
36931;SDS011;22847;42.654;23.370;2022-08-25T10:54:47;28.70;;;4.70;;
36931;SDS011;22847;42.654;23.370;2022-08-25T10:57:45;39.28;;;5.25;;
36931;SDS011;22847;42.654;23.370;2022-08-25T11:00:08;40.10;;;5.13;;
36931;SDS011;22847;42.654;23.370;2022-08-25T11:08:07;28.85;;;4.40;;
36931;SDS011;22847;42.654;23.370;2022-08-25T11:13:18;44.30;;;5.78;;
36931;SDS011;22847;42.654;23.370;2022-08-25T11:16:08;36.22;;;4.20;;
36931;SDS011;22847;42.654;23.370;2022-08-25T11:18:40;20.02;;;5.60;;
36931;SDS011;22847;42.654;23.370;2022-08-25T11:21:14;31.98;;;5.15;;
36931;SDS011;22847;42.654;23.370;2022-08-25T11:26:39;26.85;;;5.20;;
36931;SDS011;22847;42.654;23.370;2022-08-25T11:29:12;30.48;;;4.97;;
36931;SDS011;22847;42.654;23.370;2022-08-25T11:31:42;31.95;;;4.93;;
36931;SDS011;22847;42.654;23.370;2022-08-25T11:34:16;30.52;;;5.95;;
36931;SDS011;22847;42.654;23.370;2022-08-25T11:36:54;23.80;;;4.38;;
36931;SDS011;22847;42.654;23.370;2022-08-25T11:51:06;24.90;;;4.47;;
36931;SDS011;22847;42.654;23.370;2022-08-25T11:53:37;35.55;;;4.50;;
36931;SDS011;22847;42.654;23.370;2022-08-25T11:56:08;22.90;;;4.85;;
36931;SDS011;22847;42.654;23.370;2022-08-25T11:58:44;24.33;;;4.80;;
36931;SDS011;22847;42.654;23.370;2022-08-25T12:04:13;33.20;;;5.00;;
36931;SDS011;22847;42.654;23.370;2022-08-25T12:15:25;24.55;;;4.40;;
36931;SDS011;22847;42.654;23.370;2022-08-25T12:18:41;25.42;;;4.15;;
36931;SDS011;22847;42.654;23.370;2022-08-25T12:32:04;16.70;;;4.13;;
36931;SDS011;22847;42.654;23.370;2022-08-25T12:37:12;22.85;;;4.55;;
36931;SDS011;22847;42.654;23.370;2022-08-25T12:42:36;31.92;;;4.00;;
36931;SDS011;22847;42.654;23.370;2022-08-25T12:45:09;20.90;;;5.67;;
36931;SDS011;22847;42.654;23.370;2022-08-25T12:47:38;28.20;;;4.85;;
36931;SDS011;22847;42.654;23.370;2022-08-25T12:55:36;24.42;;;4.40;;
36931;SDS011;22847;42.654;23.370;2022-08-25T12:58:04;32.88;;;4.45;;
36931;SDS011;22847;42.654;23.370;2022-08-25T13:12:11;23.90;;;4.35;;
36931;SDS011;22847;42.654;23.370;2022-08-25T13:14:42;25.13;;;4.65;;
36931;SDS011;22847;42.654;23.370;2022-08-25T13:17:10;24.02;;;4.55;;
36931;SDS011;22847;42.654;23.370;2022-08-25T13:19:35;23.65;;;4.97;;
36931;SDS011;22847;42.654;23.370;2022-08-25T13:22:11;22.15;;;5.28;;
36931;SDS011;22847;42.654;23.370;2022-08-25T13:24:40;28.77;;;4.82;;
36931;SDS011;22847;42.654;23.370;2022-08-25T13:27:08;19.88;;;4.97;;
36931;SDS011;22847;42.654;23.370;2022-08-25T13:29:52;28.58;;;6.60;;
36931;SDS011;22847;42.654;23.370;2022-08-25T13:32:25;24.27;;;5.22;;
36931;SDS011;22847;42.654;23.370;2022-08-25T13:34:54;19.50;;;4.25;;
36931;SDS011;22847;42.654;23.370;2022-08-25T13:37:34;24.50;;;4.65;;
36931;SDS011;22847;42.654;23.370;2022-08-25T13:42:50;26.17;;;5.00;;
36931;SDS011;22847;42.654;23.370;2022-08-25T13:45:20;26.88;;;5.22;;
36931;SDS011;22847;42.654;23.370;2022-08-25T13:47:47;30.13;;;5.32;;
36931;SDS011;22847;42.654;23.370;2022-08-25T13:52:55;27.13;;;5.55;;
36931;SDS011;22847;42.654;23.370;2022-08-25T13:55:24;19.50;;;4.93;;
36931;SDS011;22847;42.654;23.370;2022-08-25T13:57:53;28.00;;;4.80;;
36931;SDS011;22847;42.654;23.370;2022-08-25T14:01:07;20.25;;;5.32;;
36931;SDS011;22847;42.654;23.370;2022-08-25T14:03:35;25.23;;;5.10;;
36931;SDS011;22847;42.654;23.370;2022-08-25T14:08:40;24.02;;;4.47;;
36931;SDS011;22847;42.654;23.370;2022-08-25T14:13:57;30.60;;;4.53;;
36931;SDS011;22847;42.654;23.370;2022-08-25T14:16:24;25.83;;;4.75;;
36931;SDS011;22847;42.654;23.370;2022-08-25T14:18:52;25.25;;;4.55;;
36931;SDS011;22847;42.654;23.370;2022-08-25T14:21:21;27.05;;;4.93;;
36931;SDS011;22847;42.654;23.370;2022-08-25T14:23:49;21.35;;;5.45;;
36931;SDS011;22847;42.654;23.370;2022-08-25T14:26:16;25.75;;;6.65;;
36931;SDS011;22847;42.654;23.370;2022-08-25T14:28:42;32.70;;;5.88;;
36931;SDS011;22847;42.654;23.370;2022-08-25T14:31:08;30.10;;;4.70;;
36931;SDS011;22847;42.654;23.370;2022-08-25T14:33:47;28.27;;;5.05;;
36931;SDS011;22847;42.654;23.370;2022-08-25T14:36:19;20.00;;;4.90;;
36931;SDS011;22847;42.654;23.370;2022-08-25T14:38:45;33.80;;;4.55;;
36931;SDS011;22847;42.654;23.370;2022-08-25T14:41:10;30.45;;;4.78;;
36931;SDS011;22847;42.654;23.370;2022-08-25T14:43:36;33.22;;;7.20;;
36931;SDS011;22847;42.654;23.370;2022-08-25T14:46:05;24.00;;;5.72;;
36931;SDS011;22847;42.654;23.370;2022-08-25T14:48:44;22.83;;;4.95;;
36931;SDS011;22847;42.654;23.370;2022-08-25T14:51:11;34.60;;;4.93;;
36931;SDS011;22847;42.654;23.370;2022-08-25T14:53:39;27.92;;;5.80;;
36931;SDS011;22847;42.654;23.370;2022-08-25T14:56:06;26.42;;;4.15;;
36931;SDS011;22847;42.654;23.370;2022-08-25T14:58:31;15.95;;;4.93;;
36931;SDS011;22847;42.654;23.370;2022-08-25T15:00:57;35.80;;;5.35;;
36931;SDS011;22847;42.654;23.370;2022-08-25T15:03:27;18.75;;;4.15;;
36931;SDS011;22847;42.654;23.370;2022-08-25T15:05:54;29.83;;;5.25;;
36931;SDS011;22847;42.654;23.370;2022-08-25T15:08:20;26.52;;;4.90;;
36931;SDS011;22847;42.654;23.370;2022-08-25T15:11:04;25.15;;;4.65;;
36931;SDS011;22847;42.654;23.370;2022-08-25T15:13:29;30.63;;;4.85;;
36931;SDS011;22847;42.654;23.370;2022-08-25T15:15:55;28.58;;;6.45;;
36931;SDS011;22847;42.654;23.370;2022-08-25T15:18:20;38.83;;;7.13;;
36931;SDS011;22847;42.654;23.370;2022-08-25T15:20:46;24.98;;;7.50;;
36931;SDS011;22847;42.654;23.370;2022-08-25T15:23:12;33.45;;;4.63;;
36931;SDS011;22847;42.654;23.370;2022-08-25T15:25:38;35.35;;;6.45;;
36931;SDS011;22847;42.654;23.370;2022-08-25T15:28:09;28.55;;;6.78;;
36931;SDS011;22847;42.654;23.370;2022-08-25T15:30:35;22.38;;;5.90;;
36931;SDS011;22847;42.654;23.370;2022-08-25T15:33:00;27.73;;;5.53;;
36931;SDS011;22847;42.654;23.370;2022-08-25T15:35:26;35.47;;;5.00;;
36931;SDS011;22847;42.654;23.370;2022-08-25T15:37:52;26.15;;;5.22;;
36931;SDS011;22847;42.654;23.370;2022-08-25T15:40:17;27.50;;;5.47;;
36931;SDS011;22847;42.654;23.370;2022-08-25T15:42:43;33.50;;;6.10;;
36931;SDS011;22847;42.654;23.370;2022-08-25T15:45:09;19.30;;;5.47;;
36931;SDS011;22847;42.654;23.370;2022-08-25T15:47:35;21.65;;;5.88;;
36931;SDS011;22847;42.654;23.370;2022-08-25T15:50:03;30.95;;;4.53;;
36931;SDS011;22847;42.654;23.370;2022-08-25T15:52:31;33.30;;;5.60;;
36931;SDS011;22847;42.654;23.370;2022-08-25T15:54:56;36.63;;;7.18;;
36931;SDS011;22847;42.654;23.370;2022-08-25T15:57:22;38.58;;;6.10;;
36931;SDS011;22847;42.654;23.370;2022-08-25T15:59:47;39.63;;;7.07;;
36931;SDS011;22847;42.654;23.370;2022-08-25T16:02:13;21.95;;;6.57;;
36931;SDS011;22847;42.654;23.370;2022-08-25T16:04:38;25.30;;;9.32;;
36931;SDS011;22847;42.654;23.370;2022-08-25T16:07:04;30.02;;;5.78;;
36931;SDS011;22847;42.654;23.370;2022-08-25T16:09:30;36.63;;;6.82;;
36931;SDS011;22847;42.654;23.370;2022-08-25T16:11:55;33.05;;;6.82;;
36931;SDS011;22847;42.654;23.370;2022-08-25T16:14:21;29.85;;;5.95;;
36931;SDS011;22847;42.654;23.370;2022-08-25T16:16:46;36.05;;;6.78;;
36931;SDS011;22847;42.654;23.370;2022-08-25T16:19:12;32.58;;;8.63;;
36931;SDS011;22847;42.654;23.370;2022-08-25T16:21:39;27.25;;;5.65;;
36931;SDS011;22847;42.654;23.370;2022-08-25T16:24:05;22.92;;;6.93;;
36931;SDS011;22847;42.654;23.370;2022-08-25T16:26:31;44.50;;;6.20;;
36931;SDS011;22847;42.654;23.370;2022-08-25T16:28:59;24.40;;;6.72;;
36931;SDS011;22847;42.654;23.370;2022-08-25T16:31:24;22.50;;;7.03;;
36931;SDS011;22847;42.654;23.370;2022-08-25T16:33:50;26.25;;;9.15;;
36931;SDS011;22847;42.654;23.370;2022-08-25T16:36:19;46.83;;;7.43;;
36931;SDS011;22847;42.654;23.370;2022-08-25T16:38:46;33.13;;;10.68;;
36931;SDS011;22847;42.654;23.370;2022-08-25T16:41:14;27.35;;;11.05;;
36931;SDS011;22847;42.654;23.370;2022-08-25T16:43:45;31.08;;;9.98;;
36931;SDS011;22847;42.654;23.370;2022-08-25T16:46:11;34.22;;;12.48;;
36931;SDS011;22847;42.654;23.370;2022-08-25T16:48:39;35.78;;;10.82;;
36931;SDS011;22847;42.654;23.370;2022-08-25T16:51:06;46.38;;;19.63;;
36931;SDS011;22847;42.654;23.370;2022-08-25T16:53:35;39.13;;;11.32;;